sensor_id;sensor_type;location;lat;lon;timestamp;P1;durP1;ratioP1;P2;durP2;ratioP2
58685;SDS011;44465;53.206;-6.106;2023-07-16T00:00:09;1.48;;;0.73;;
58685;SDS011;44465;53.206;-6.106;2023-07-16T00:02:35;1.77;;;0.80;;
58685;SDS011;44465;53.206;-6.106;2023-07-16T00:05:02;1.80;;;0.88;;
58685;SDS011;44465;53.206;-6.106;2023-07-16T00:07:28;1.20;;;0.82;;
58685;SDS011;44465;53.206;-6.106;2023-07-16T00:09:54;1.58;;;0.60;;
58685;SDS011;44465;53.206;-6.106;2023-07-16T00:12:19;0.80;;;0.80;;
58685;SDS011;44465;53.206;-6.106;2023-07-16T00:14:45;1.05;;;0.70;;
58685;SDS011;44465;53.206;-6.106;2023-07-16T00:17:10;0.98;;;0.70;;
58685;SDS011;44465;53.206;-6.106;2023-07-16T00:19:36;2.47;;;0.88;;
58685;SDS011;44465;53.206;-6.106;2023-07-16T00:22:02;1.63;;;0.70;;
58685;SDS011;44465;53.206;-6.106;2023-07-16T00:24:27;1.75;;;1.00;;
58685;SDS011;44465;53.206;-6.106;2023-07-16T00:26:53;2.33;;;0.90;;
58685;SDS011;44465;53.206;-6.106;2023-07-16T00:29:18;2.05;;;0.77;;
58685;SDS011;44465;53.206;-6.106;2023-07-16T00:31:44;1.15;;;0.77;;
58685;SDS011;44465;53.206;-6.106;2023-07-16T00:34:09;1.63;;;0.85;;
58685;SDS011;44465;53.206;-6.106;2023-07-16T00:36:35;2.03;;;0.80;;
58685;SDS011;44465;53.206;-6.106;2023-07-16T00:39:00;1.95;;;0.90;;
58685;SDS011;44465;53.206;-6.106;2023-07-16T00:41:26;1.08;;;0.95;;
58685;SDS011;44465;53.206;-6.106;2023-07-16T00:43:51;1.33;;;0.77;;
58685;SDS011;44465;53.206;-6.106;2023-07-16T00:46:19;0.80;;;0.80;;
58685;SDS011;44465;53.206;-6.106;2023-07-16T00:48:44;2.95;;;0.80;;
58685;SDS011;44465;53.206;-6.106;2023-07-16T00:51:10;2.08;;;1.08;;
58685;SDS011;44465;53.206;-6.106;2023-07-16T00:53:36;1.02;;;0.82;;
58685;SDS011;44465;53.206;-6.106;2023-07-16T00:56:02;1.70;;;0.85;;
58685;SDS011;44465;53.206;-6.106;2023-07-16T00:58:27;1.30;;;1.00;;
58685;SDS011;44465;53.206;-6.106;2023-07-16T01:00:54;3.33;;;1.15;;
58685;SDS011;44465;53.206;-6.106;2023-07-16T01:03:19;1.85;;;1.00;;
58685;SDS011;44465;53.206;-6.106;2023-07-16T01:05:47;1.35;;;0.80;;
58685;SDS011;44465;53.206;-6.106;2023-07-16T01:08:21;2.40;;;0.98;;
58685;SDS011;44465;53.206;-6.106;2023-07-16T01:10:55;0.70;;;0.70;;
58685;SDS011;44465;53.206;-6.106;2023-07-16T01:13:22;2.58;;;1.02;;
58685;SDS011;44465;53.206;-6.106;2023-07-16T01:15:48;2.57;;;0.90;;
58685;SDS011;44465;53.206;-6.106;2023-07-16T01:18:14;1.02;;;0.90;;
58685;SDS011;44465;53.206;-6.106;2023-07-16T01:20:39;1.02;;;0.93;;
58685;SDS011;44465;53.206;-6.106;2023-07-16T01:31:07;2.10;;;1.20;;
58685;SDS011;44465;53.206;-6.106;2023-07-16T01:33:38;1.17;;;1.08;;
58685;SDS011;44465;53.206;-6.106;2023-07-16T01:36:06;2.72;;;0.80;;
58685;SDS011;44465;53.206;-6.106;2023-07-16T01:38:33;1.65;;;1.00;;
58685;SDS011;44465;53.206;-6.106;2023-07-16T01:41:02;1.17;;;0.88;;
58685;SDS011;44465;53.206;-6.106;2023-07-16T01:43:28;2.00;;;1.00;;
58685;SDS011;44465;53.206;-6.106;2023-07-16T01:45:53;1.35;;;1.20;;
58685;SDS011;44465;53.206;-6.106;2023-07-16T01:48:35;1.13;;;0.88;;
58685;SDS011;44465;53.206;-6.106;2023-07-16T01:51:02;0.88;;;0.85;;
58685;SDS011;44465;53.206;-6.106;2023-07-16T01:53:28;2.25;;;0.90;;
58685;SDS011;44465;53.206;-6.106;2023-07-16T01:55:53;2.20;;;1.00;;
58685;SDS011;44465;53.206;-6.106;2023-07-16T01:58:19;1.17;;;0.70;;
58685;SDS011;44465;53.206;-6.106;2023-07-16T02:00:45;1.60;;;0.80;;
58685;SDS011;44465;53.206;-6.106;2023-07-16T02:03:11;1.00;;;0.90;;
58685;SDS011;44465;53.206;-6.106;2023-07-16T02:05:37;1.58;;;1.25;;
58685;SDS011;44465;53.206;-6.106;2023-07-16T02:08:02;2.05;;;1.10;;
58685;SDS011;44465;53.206;-6.106;2023-07-16T02:10:31;2.10;;;0.80;;
58685;SDS011;44465;53.206;-6.106;2023-07-16T02:12:57;2.17;;;1.23;;
58685;SDS011;44465;53.206;-6.106;2023-07-16T02:15:22;1.73;;;0.70;;
58685;SDS011;44465;53.206;-6.106;2023-07-16T02:17:48;1.65;;;0.88;;
58685;SDS011;44465;53.206;-6.106;2023-07-16T02:20:15;3.80;;;1.10;;
58685;SDS011;44465;53.206;-6.106;2023-07-16T02:22:40;1.58;;;1.00;;
58685;SDS011;44465;53.206;-6.106;2023-07-16T02:25:06;2.63;;;1.10;;
58685;SDS011;44465;53.206;-6.106;2023-07-16T02:27:31;2.33;;;1.13;;
58685;SDS011;44465;53.206;-6.106;2023-07-16T02:29:57;3.50;;;1.10;;
58685;SDS011;44465;53.206;-6.106;2023-07-16T02:32:23;2.88;;;1.13;;
58685;SDS011;44465;53.206;-6.106;2023-07-16T02:34:48;2.58;;;1.00;;
58685;SDS011;44465;53.206;-6.106;2023-07-16T02:37:14;2.10;;;1.00;;
58685;SDS011;44465;53.206;-6.106;2023-07-16T02:39:41;1.65;;;0.85;;
58685;SDS011;44465;53.206;-6.106;2023-07-16T02:42:07;3.45;;;0.90;;
58685;SDS011;44465;53.206;-6.106;2023-07-16T02:44:33;2.20;;;1.23;;
58685;SDS011;44465;53.206;-6.106;2023-07-16T02:47:01;1.20;;;0.90;;
58685;SDS011;44465;53.206;-6.106;2023-07-16T02:49:27;1.20;;;0.70;;
58685;SDS011;44465;53.206;-6.106;2023-07-16T02:51:52;1.23;;;1.00;;
58685;SDS011;44465;53.206;-6.106;2023-07-16T02:54:18;1.38;;;0.85;;
58685;SDS011;44465;53.206;-6.106;2023-07-16T02:56:43;1.55;;;0.80;;
58685;SDS011;44465;53.206;-6.106;2023-07-16T02:59:09;1.05;;;0.80;;
58685;SDS011;44465;53.206;-6.106;2023-07-16T03:01:34;2.65;;;1.08;;
58685;SDS011;44465;53.206;-6.106;2023-07-16T03:04:00;2.75;;;0.98;;
58685;SDS011;44465;53.206;-6.106;2023-07-16T03:06:25;1.25;;;0.88;;
58685;SDS011;44465;53.206;-6.106;2023-07-16T03:08:51;2.28;;;0.90;;
58685;SDS011;44465;53.206;-6.106;2023-07-16T03:11:17;2.03;;;0.90;;
58685;SDS011;44465;53.206;-6.106;2023-07-16T03:13:43;1.20;;;1.10;;
58685;SDS011;44465;53.206;-6.106;2023-07-16T03:16:09;1.02;;;0.90;;
58685;SDS011;44465;53.206;-6.106;2023-07-16T03:18:34;1.15;;;0.77;;
58685;SDS011;44465;53.206;-6.106;2023-07-16T03:20:59;1.27;;;0.85;;
58685;SDS011;44465;53.206;-6.106;2023-07-16T03:23:25;2.80;;;1.10;;
58685;SDS011;44465;53.206;-6.106;2023-07-16T03:25:53;0.95;;;0.60;;
58685;SDS011;44465;53.206;-6.106;2023-07-16T03:28:19;1.38;;;0.75;;
58685;SDS011;44465;53.206;-6.106;2023-07-16T03:30:48;0.88;;;0.88;;
58685;SDS011;44465;53.206;-6.106;2023-07-16T03:33:15;1.77;;;0.88;;
58685;SDS011;44465;53.206;-6.106;2023-07-16T03:35:43;2.28;;;1.02;;
58685;SDS011;44465;53.206;-6.106;2023-07-16T03:38:10;1.10;;;1.00;;
58685;SDS011;44465;53.206;-6.106;2023-07-16T03:40:36;0.98;;;0.90;;
58685;SDS011;44465;53.206;-6.106;2023-07-16T03:43:01;1.20;;;0.95;;
58685;SDS011;44465;53.206;-6.106;2023-07-16T03:45:27;0.88;;;0.80;;
58685;SDS011;44465;53.206;-6.106;2023-07-16T03:47:53;1.75;;;0.90;;
58685;SDS011;44465;53.206;-6.106;2023-07-16T03:50:18;1.58;;;0.90;;
58685;SDS011;44465;53.206;-6.106;2023-07-16T03:52:44;1.23;;;0.77;;
58685;SDS011;44465;53.206;-6.106;2023-07-16T03:55:10;0.73;;;0.70;;
58685;SDS011;44465;53.206;-6.106;2023-07-16T03:57:35;1.42;;;0.80;;
58685;SDS011;44465;53.206;-6.106;2023-07-16T04:00:05;2.45;;;1.23;;
58685;SDS011;44465;53.206;-6.106;2023-07-16T04:05:05;1.65;;;1.20;;
58685;SDS011;44465;53.206;-6.106;2023-07-16T04:07:31;1.98;;;0.90;;
58685;SDS011;44465;53.206;-6.106;2023-07-16T04:09:56;1.20;;;1.05;;
58685;SDS011;44465;53.206;-6.106;2023-07-16T04:12:22;0.73;;;0.63;;
58685;SDS011;44465;53.206;-6.106;2023-07-16T04:14:47;1.35;;;1.00;;
58685;SDS011;44465;53.206;-6.106;2023-07-16T04:17:13;0.85;;;0.70;;
58685;SDS011;44465;53.206;-6.106;2023-07-16T04:19:38;1.98;;;0.82;;
58685;SDS011;44465;53.206;-6.106;2023-07-16T04:22:04;1.95;;;0.80;;
58685;SDS011;44465;53.206;-6.106;2023-07-16T04:24:30;1.42;;;0.90;;
58685;SDS011;44465;53.206;-6.106;2023-07-16T04:26:55;1.75;;;0.95;;
58685;SDS011;44465;53.206;-6.106;2023-07-16T04:29:21;0.98;;;0.75;;
58685;SDS011;44465;53.206;-6.106;2023-07-16T04:31:47;1.30;;;0.93;;
58685;SDS011;44465;53.206;-6.106;2023-07-16T04:34:12;0.63;;;0.60;;
58685;SDS011;44465;53.206;-6.106;2023-07-16T04:36:38;1.17;;;0.77;;
58685;SDS011;44465;53.206;-6.106;2023-07-16T04:39:04;2.75;;;1.02;;
58685;SDS011;44465;53.206;-6.106;2023-07-16T04:41:30;1.00;;;0.73;;
58685;SDS011;44465;53.206;-6.106;2023-07-16T04:43:55;1.50;;;0.90;;
58685;SDS011;44465;53.206;-6.106;2023-07-16T04:46:21;0.60;;;0.60;;
58685;SDS011;44465;53.206;-6.106;2023-07-16T04:48:46;0.80;;;0.80;;
58685;SDS011;44465;53.206;-6.106;2023-07-16T04:51:12;1.25;;;1.00;;
58685;SDS011;44465;53.206;-6.106;2023-07-16T04:53:37;0.95;;;0.57;;
58685;SDS011;44465;53.206;-6.106;2023-07-16T04:56:03;1.85;;;0.85;;
58685;SDS011;44465;53.206;-6.106;2023-07-16T04:58:28;1.02;;;0.68;;
58685;SDS011;44465;53.206;-6.106;2023-07-16T05:00:54;3.97;;;0.70;;
58685;SDS011;44465;53.206;-6.106;2023-07-16T05:03:19;1.00;;;0.90;;
58685;SDS011;44465;53.206;-6.106;2023-07-16T05:05:45;1.25;;;0.90;;
58685;SDS011;44465;53.206;-6.106;2023-07-16T05:08:10;0.95;;;0.80;;
58685;SDS011;44465;53.206;-6.106;2023-07-16T05:10:36;2.55;;;1.33;;
58685;SDS011;44465;53.206;-6.106;2023-07-16T05:13:01;0.95;;;0.85;;
58685;SDS011;44465;53.206;-6.106;2023-07-16T05:15:28;0.80;;;0.70;;
58685;SDS011;44465;53.206;-6.106;2023-07-16T05:17:54;1.20;;;0.90;;
58685;SDS011;44465;53.206;-6.106;2023-07-16T05:20:22;1.65;;;0.77;;
58685;SDS011;44465;53.206;-6.106;2023-07-16T05:22:48;0.82;;;0.80;;
58685;SDS011;44465;53.206;-6.106;2023-07-16T05:25:13;1.02;;;0.70;;
58685;SDS011;44465;53.206;-6.106;2023-07-16T05:27:39;0.68;;;0.68;;
58685;SDS011;44465;53.206;-6.106;2023-07-16T05:30:04;0.73;;;0.70;;
58685;SDS011;44465;53.206;-6.106;2023-07-16T05:32:30;1.75;;;0.93;;
58685;SDS011;44465;53.206;-6.106;2023-07-16T05:34:56;2.00;;;1.25;;
58685;SDS011;44465;53.206;-6.106;2023-07-16T05:37:21;0.93;;;0.68;;
58685;SDS011;44465;53.206;-6.106;2023-07-16T05:39:46;1.48;;;0.80;;
58685;SDS011;44465;53.206;-6.106;2023-07-16T05:42:12;0.95;;;0.77;;
58685;SDS011;44465;53.206;-6.106;2023-07-16T05:44:37;1.08;;;0.77;;
58685;SDS011;44465;53.206;-6.106;2023-07-16T05:47:03;1.58;;;0.93;;
58685;SDS011;44465;53.206;-6.106;2023-07-16T05:49:29;1.88;;;0.57;;
58685;SDS011;44465;53.206;-6.106;2023-07-16T05:51:54;2.15;;;1.05;;
58685;SDS011;44465;53.206;-6.106;2023-07-16T05:54:21;2.10;;;0.70;;
58685;SDS011;44465;53.206;-6.106;2023-07-16T05:56:47;0.70;;;0.70;;
58685;SDS011;44465;53.206;-6.106;2023-07-16T05:59:12;0.70;;;0.70;;
58685;SDS011;44465;53.206;-6.106;2023-07-16T06:01:38;0.63;;;0.60;;
58685;SDS011;44465;53.206;-6.106;2023-07-16T06:04:03;0.60;;;0.60;;
58685;SDS011;44465;53.206;-6.106;2023-07-16T06:06:29;0.77;;;0.77;;
58685;SDS011;44465;53.206;-6.106;2023-07-16T06:08:55;0.82;;;0.80;;
58685;SDS011;44465;53.206;-6.106;2023-07-16T06:11:21;0.60;;;0.60;;
58685;SDS011;44465;53.206;-6.106;2023-07-16T06:13:46;0.80;;;0.70;;
58685;SDS011;44465;53.206;-6.106;2023-07-16T06:16:12;1.00;;;0.80;;
58685;SDS011;44465;53.206;-6.106;2023-07-16T06:18:37;2.35;;;0.82;;
58685;SDS011;44465;53.206;-6.106;2023-07-16T06:21:03;1.08;;;0.80;;
58685;SDS011;44465;53.206;-6.106;2023-07-16T06:23:28;1.00;;;0.80;;
58685;SDS011;44465;53.206;-6.106;2023-07-16T06:25:57;1.17;;;0.70;;
58685;SDS011;44465;53.206;-6.106;2023-07-16T06:28:23;1.17;;;0.60;;
58685;SDS011;44465;53.206;-6.106;2023-07-16T06:30:49;1.75;;;0.98;;
58685;SDS011;44465;53.206;-6.106;2023-07-16T06:33:17;1.02;;;0.77;;
58685;SDS011;44465;53.206;-6.106;2023-07-16T06:35:46;0.75;;;0.57;;
58685;SDS011;44465;53.206;-6.106;2023-07-16T06:38:13;0.93;;;0.73;;
58685;SDS011;44465;53.206;-6.106;2023-07-16T06:40:39;0.80;;;0.80;;
58685;SDS011;44465;53.206;-6.106;2023-07-16T06:43:05;2.33;;;0.75;;
58685;SDS011;44465;53.206;-6.106;2023-07-16T06:45:30;1.65;;;0.70;;
58685;SDS011;44465;53.206;-6.106;2023-07-16T06:47:56;1.00;;;0.70;;
58685;SDS011;44465;53.206;-6.106;2023-07-16T06:50:21;0.70;;;0.60;;
58685;SDS011;44465;53.206;-6.106;2023-07-16T06:52:47;0.75;;;0.60;;
58685;SDS011;44465;53.206;-6.106;2023-07-16T06:55:12;1.00;;;0.60;;
58685;SDS011;44465;53.206;-6.106;2023-07-16T06:57:38;1.63;;;0.55;;
58685;SDS011;44465;53.206;-6.106;2023-07-16T07:00:04;1.15;;;0.88;;
58685;SDS011;44465;53.206;-6.106;2023-07-16T07:02:30;1.33;;;0.90;;
58685;SDS011;44465;53.206;-6.106;2023-07-16T07:04:56;0.75;;;0.50;;
58685;SDS011;44465;53.206;-6.106;2023-07-16T07:07:21;1.08;;;0.70;;
58685;SDS011;44465;53.206;-6.106;2023-07-16T07:09:47;1.35;;;0.50;;
58685;SDS011;44465;53.206;-6.106;2023-07-16T07:12:13;1.42;;;0.70;;
58685;SDS011;44465;53.206;-6.106;2023-07-16T07:14:39;2.88;;;0.75;;
58685;SDS011;44465;53.206;-6.106;2023-07-16T07:17:05;1.27;;;0.90;;
58685;SDS011;44465;53.206;-6.106;2023-07-16T07:19:30;0.75;;;0.70;;
58685;SDS011;44465;53.206;-6.106;2023-07-16T07:21:57;2.13;;;0.60;;
58685;SDS011;44465;53.206;-6.106;2023-07-16T07:24:22;1.67;;;0.52;;
58685;SDS011;44465;53.206;-6.106;2023-07-16T07:26:48;1.67;;;0.73;;
58685;SDS011;44465;53.206;-6.106;2023-07-16T07:29:13;1.15;;;0.63;;
58685;SDS011;44465;53.206;-6.106;2023-07-16T07:31:39;0.60;;;0.60;;
58685;SDS011;44465;53.206;-6.106;2023-07-16T07:34:04;0.93;;;0.52;;
58685;SDS011;44465;53.206;-6.106;2023-07-16T07:36:30;0.63;;;0.50;;
58685;SDS011;44465;53.206;-6.106;2023-07-16T07:38:55;0.60;;;0.60;;
58685;SDS011;44465;53.206;-6.106;2023-07-16T07:41:21;0.45;;;0.45;;
58685;SDS011;44465;53.206;-6.106;2023-07-16T07:43:46;0.68;;;0.68;;
58685;SDS011;44465;53.206;-6.106;2023-07-16T07:46:12;0.73;;;0.55;;
58685;SDS011;44465;53.206;-6.106;2023-07-16T07:48:37;1.67;;;0.70;;
58685;SDS011;44465;53.206;-6.106;2023-07-16T07:51:03;1.15;;;0.55;;
58685;SDS011;44465;53.206;-6.106;2023-07-16T07:53:28;0.52;;;0.52;;
58685;SDS011;44465;53.206;-6.106;2023-07-16T07:55:54;0.90;;;0.70;;
58685;SDS011;44465;53.206;-6.106;2023-07-16T07:58:19;1.60;;;0.93;;
58685;SDS011;44465;53.206;-6.106;2023-07-16T08:00:45;0.65;;;0.60;;
58685;SDS011;44465;53.206;-6.106;2023-07-16T08:03:10;0.82;;;0.60;;
58685;SDS011;44465;53.206;-6.106;2023-07-16T08:05:36;0.80;;;0.63;;
58685;SDS011;44465;53.206;-6.106;2023-07-16T08:08:01;1.52;;;0.60;;
58685;SDS011;44465;53.206;-6.106;2023-07-16T08:10:27;0.93;;;0.70;;
58685;SDS011;44465;53.206;-6.106;2023-07-16T08:12:52;1.00;;;0.60;;
58685;SDS011;44465;53.206;-6.106;2023-07-16T08:15:18;1.92;;;0.90;;
58685;SDS011;44465;53.206;-6.106;2023-07-16T08:17:44;1.42;;;0.70;;
58685;SDS011;44465;53.206;-6.106;2023-07-16T08:20:11;0.88;;;0.73;;
58685;SDS011;44465;53.206;-6.106;2023-07-16T08:22:37;0.80;;;0.70;;
58685;SDS011;44465;53.206;-6.106;2023-07-16T08:25:03;1.83;;;0.80;;
58685;SDS011;44465;53.206;-6.106;2023-07-16T08:27:29;0.55;;;0.55;;
58685;SDS011;44465;53.206;-6.106;2023-07-16T08:29:55;1.08;;;0.93;;
58685;SDS011;44465;53.206;-6.106;2023-07-16T08:32:21;0.80;;;0.70;;
58685;SDS011;44465;53.206;-6.106;2023-07-16T08:34:47;0.93;;;0.70;;
58685;SDS011;44465;53.206;-6.106;2023-07-16T08:37:13;0.93;;;0.60;;
58685;SDS011;44465;53.206;-6.106;2023-07-16T08:39:39;0.75;;;0.70;;
58685;SDS011;44465;53.206;-6.106;2023-07-16T08:42:04;1.88;;;0.75;;
58685;SDS011;44465;53.206;-6.106;2023-07-16T08:44:30;1.45;;;0.80;;
58685;SDS011;44465;53.206;-6.106;2023-07-16T08:46:56;1.67;;;0.77;;
58685;SDS011;44465;53.206;-6.106;2023-07-16T08:49:22;2.33;;;0.80;;
58685;SDS011;44465;53.206;-6.106;2023-07-16T08:51:48;1.27;;;0.80;;
58685;SDS011;44465;53.206;-6.106;2023-07-16T08:54:14;0.60;;;0.60;;
58685;SDS011;44465;53.206;-6.106;2023-07-16T08:56:43;1.50;;;0.50;;
58685;SDS011;44465;53.206;-6.106;2023-07-16T08:59:09;1.40;;;0.70;;
58685;SDS011;44465;53.206;-6.106;2023-07-16T09:01:36;0.73;;;0.57;;
58685;SDS011;44465;53.206;-6.106;2023-07-16T09:04:02;0.65;;;0.65;;
58685;SDS011;44465;53.206;-6.106;2023-07-16T09:06:28;1.85;;;0.80;;
58685;SDS011;44465;53.206;-6.106;2023-07-16T09:08:53;2.45;;;1.10;;
58685;SDS011;44465;53.206;-6.106;2023-07-16T09:11:20;2.45;;;0.70;;
58685;SDS011;44465;53.206;-6.106;2023-07-16T09:13:47;0.85;;;0.60;;
58685;SDS011;44465;53.206;-6.106;2023-07-16T09:16:13;1.02;;;0.63;;
58685;SDS011;44465;53.206;-6.106;2023-07-16T09:18:41;0.90;;;0.80;;
58685;SDS011;44465;53.206;-6.106;2023-07-16T09:21:07;0.50;;;0.50;;
58685;SDS011;44465;53.206;-6.106;2023-07-16T09:23:33;1.25;;;0.70;;
58685;SDS011;44465;53.206;-6.106;2023-07-16T09:25:59;1.35;;;0.50;;
58685;SDS011;44465;53.206;-6.106;2023-07-16T09:28:24;1.08;;;0.95;;
58685;SDS011;44465;53.206;-6.106;2023-07-16T09:30:51;0.70;;;0.60;;
58685;SDS011;44465;53.206;-6.106;2023-07-16T09:33:18;1.10;;;0.90;;
58685;SDS011;44465;53.206;-6.106;2023-07-16T09:35:47;1.35;;;0.77;;
58685;SDS011;44465;53.206;-6.106;2023-07-16T09:38:14;1.17;;;0.73;;
58685;SDS011;44465;53.206;-6.106;2023-07-16T09:40:39;1.00;;;0.60;;
58685;SDS011;44465;53.206;-6.106;2023-07-16T09:43:07;1.90;;;0.70;;
58685;SDS011;44465;53.206;-6.106;2023-07-16T09:45:33;1.65;;;0.80;;
58685;SDS011;44465;53.206;-6.106;2023-07-16T09:47:59;0.70;;;0.70;;
58685;SDS011;44465;53.206;-6.106;2023-07-16T09:50:24;0.82;;;0.60;;
58685;SDS011;44465;53.206;-6.106;2023-07-16T09:52:52;0.90;;;0.80;;
58685;SDS011;44465;53.206;-6.106;2023-07-16T09:55:19;0.73;;;0.73;;
58685;SDS011;44465;53.206;-6.106;2023-07-16T09:57:47;1.67;;;0.80;;
58685;SDS011;44465;53.206;-6.106;2023-07-16T10:00:14;0.93;;;0.87;;
58685;SDS011;44465;53.206;-6.106;2023-07-16T10:02:42;0.80;;;0.70;;
58685;SDS011;44465;53.206;-6.106;2023-07-16T10:05:12;1.75;;;0.77;;
58685;SDS011;44465;53.206;-6.106;2023-07-16T10:07:42;0.88;;;0.65;;
58685;SDS011;44465;53.206;-6.106;2023-07-16T10:10:08;0.50;;;0.50;;
58685;SDS011;44465;53.206;-6.106;2023-07-16T10:12:36;2.90;;;0.90;;
58685;SDS011;44465;53.206;-6.106;2023-07-16T10:15:03;0.80;;;0.70;;
58685;SDS011;44465;53.206;-6.106;2023-07-16T10:17:33;3.00;;;0.70;;
58685;SDS011;44465;53.206;-6.106;2023-07-16T10:25:03;2.83;;;1.23;;
58685;SDS011;44465;53.206;-6.106;2023-07-16T10:27:32;0.77;;;0.70;;
58685;SDS011;44465;53.206;-6.106;2023-07-16T10:29:59;1.38;;;0.90;;
58685;SDS011;44465;53.206;-6.106;2023-07-16T10:32:29;0.70;;;0.63;;
58685;SDS011;44465;53.206;-6.106;2023-07-16T10:34:55;2.60;;;1.17;;
58685;SDS011;44465;53.206;-6.106;2023-07-16T10:37:21;0.60;;;0.57;;
58685;SDS011;44465;53.206;-6.106;2023-07-16T10:39:54;1.63;;;0.90;;
58685;SDS011;44465;53.206;-6.106;2023-07-16T10:42:23;1.60;;;0.75;;
58685;SDS011;44465;53.206;-6.106;2023-07-16T10:44:49;0.85;;;0.63;;
58685;SDS011;44465;53.206;-6.106;2023-07-16T10:47:23;2.05;;;1.00;;
58685;SDS011;44465;53.206;-6.106;2023-07-16T10:49:56;0.70;;;0.70;;
58685;SDS011;44465;53.206;-6.106;2023-07-16T10:52:21;4.05;;;1.05;;
58685;SDS011;44465;53.206;-6.106;2023-07-16T10:54:48;5.28;;;1.60;;
58685;SDS011;44465;53.206;-6.106;2023-07-16T10:57:20;4.25;;;1.13;;
58685;SDS011;44465;53.206;-6.106;2023-07-16T10:59:46;6.68;;;2.22;;
58685;SDS011;44465;53.206;-6.106;2023-07-16T11:02:15;3.47;;;1.08;;
58685;SDS011;44465;53.206;-6.106;2023-07-16T11:04:42;5.97;;;0.80;;
58685;SDS011;44465;53.206;-6.106;2023-07-16T11:07:10;4.60;;;1.10;;
58685;SDS011;44465;53.206;-6.106;2023-07-16T11:09:40;9.30;;;1.50;;
58685;SDS011;44465;53.206;-6.106;2023-07-16T11:12:10;5.20;;;1.58;;
58685;SDS011;44465;53.206;-6.106;2023-07-16T11:14:37;6.22;;;1.30;;
58685;SDS011;44465;53.206;-6.106;2023-07-16T11:17:04;3.28;;;1.35;;
58685;SDS011;44465;53.206;-6.106;2023-07-16T11:19:31;3.00;;;1.15;;
58685;SDS011;44465;53.206;-6.106;2023-07-16T11:21:57;2.60;;;1.60;;
58685;SDS011;44465;53.206;-6.106;2023-07-16T11:24:23;3.72;;;1.23;;
58685;SDS011;44465;53.206;-6.106;2023-07-16T11:26:56;4.75;;;1.33;;
58685;SDS011;44465;53.206;-6.106;2023-07-16T11:29:24;3.25;;;1.40;;
58685;SDS011;44465;53.206;-6.106;2023-07-16T11:31:51;4.53;;;1.30;;
58685;SDS011;44465;53.206;-6.106;2023-07-16T11:34:20;8.90;;;1.75;;
58685;SDS011;44465;53.206;-6.106;2023-07-16T11:36:48;8.05;;;1.73;;
58685;SDS011;44465;53.206;-6.106;2023-07-16T11:39:14;8.25;;;1.90;;
58685;SDS011;44465;53.206;-6.106;2023-07-16T11:41:40;7.93;;;1.90;;
58685;SDS011;44465;53.206;-6.106;2023-07-16T11:44:07;6.50;;;1.50;;
58685;SDS011;44465;53.206;-6.106;2023-07-16T11:46:33;11.50;;;2.65;;
58685;SDS011;44465;53.206;-6.106;2023-07-16T11:48:59;9.60;;;1.83;;
58685;SDS011;44465;53.206;-6.106;2023-07-16T11:51:25;12.15;;;1.85;;
58685;SDS011;44465;53.206;-6.106;2023-07-16T11:53:51;10.70;;;2.03;;
58685;SDS011;44465;53.206;-6.106;2023-07-16T11:56:16;10.25;;;2.03;;
58685;SDS011;44465;53.206;-6.106;2023-07-16T11:58:42;8.95;;;1.75;;
58685;SDS011;44465;53.206;-6.106;2023-07-16T12:01:07;9.30;;;1.70;;
58685;SDS011;44465;53.206;-6.106;2023-07-16T12:03:33;7.28;;;1.60;;
58685;SDS011;44465;53.206;-6.106;2023-07-16T12:05:59;8.10;;;1.80;;
58685;SDS011;44465;53.206;-6.106;2023-07-16T12:08:24;5.53;;;1.33;;
58685;SDS011;44465;53.206;-6.106;2023-07-16T12:10:50;8.77;;;1.65;;
58685;SDS011;44465;53.206;-6.106;2023-07-16T12:13:15;4.20;;;1.80;;
58685;SDS011;44465;53.206;-6.106;2023-07-16T12:15:41;8.38;;;1.90;;
58685;SDS011;44465;53.206;-6.106;2023-07-16T12:18:06;11.10;;;1.55;;
58685;SDS011;44465;53.206;-6.106;2023-07-16T12:20:33;6.10;;;1.40;;
58685;SDS011;44465;53.206;-6.106;2023-07-16T12:22:59;3.63;;;1.10;;
58685;SDS011;44465;53.206;-6.106;2023-07-16T12:25:24;7.85;;;1.20;;
58685;SDS011;44465;53.206;-6.106;2023-07-16T12:27:50;4.28;;;1.38;;
58685;SDS011;44465;53.206;-6.106;2023-07-16T12:30:16;3.33;;;1.27;;
58685;SDS011;44465;53.206;-6.106;2023-07-16T12:32:42;2.63;;;1.13;;
58685;SDS011;44465;53.206;-6.106;2023-07-16T12:35:07;4.47;;;1.23;;
58685;SDS011;44465;53.206;-6.106;2023-07-16T12:37:33;4.93;;;1.52;;
58685;SDS011;44465;53.206;-6.106;2023-07-16T12:39:58;2.08;;;1.50;;
58685;SDS011;44465;53.206;-6.106;2023-07-16T12:42:24;3.50;;;1.45;;
58685;SDS011;44465;53.206;-6.106;2023-07-16T12:44:49;2.25;;;1.10;;
58685;SDS011;44465;53.206;-6.106;2023-07-16T12:47:15;6.72;;;1.42;;
58685;SDS011;44465;53.206;-6.106;2023-07-16T12:49:40;3.45;;;1.25;;
58685;SDS011;44465;53.206;-6.106;2023-07-16T12:52:06;4.80;;;1.35;;
58685;SDS011;44465;53.206;-6.106;2023-07-16T12:54:32;4.30;;;1.38;;
58685;SDS011;44465;53.206;-6.106;2023-07-16T12:56:58;4.53;;;1.20;;
58685;SDS011;44465;53.206;-6.106;2023-07-16T12:59:23;3.03;;;1.20;;
58685;SDS011;44465;53.206;-6.106;2023-07-16T13:01:49;2.10;;;1.05;;
58685;SDS011;44465;53.206;-6.106;2023-07-16T13:04:15;4.85;;;1.50;;
58685;SDS011;44465;53.206;-6.106;2023-07-16T13:06:41;1.70;;;1.10;;
58685;SDS011;44465;53.206;-6.106;2023-07-16T13:09:07;5.07;;;1.17;;
58685;SDS011;44465;53.206;-6.106;2023-07-16T13:11:33;4.88;;;0.90;;
58685;SDS011;44465;53.206;-6.106;2023-07-16T13:13:58;6.72;;;1.38;;
58685;SDS011;44465;53.206;-6.106;2023-07-16T13:16:24;11.77;;;1.83;;
58685;SDS011;44465;53.206;-6.106;2023-07-16T13:18:49;1.23;;;0.90;;
58685;SDS011;44465;53.206;-6.106;2023-07-16T13:21:15;11.23;;;1.88;;
58685;SDS011;44465;53.206;-6.106;2023-07-16T13:23:40;6.15;;;1.02;;
58685;SDS011;44465;53.206;-6.106;2023-07-16T13:26:06;4.25;;;1.30;;
58685;SDS011;44465;53.206;-6.106;2023-07-16T13:28:31;5.82;;;1.23;;
58685;SDS011;44465;53.206;-6.106;2023-07-16T13:30:57;6.40;;;1.50;;
58685;SDS011;44465;53.206;-6.106;2023-07-16T13:33:22;3.53;;;1.15;;
58685;SDS011;44465;53.206;-6.106;2023-07-16T13:35:48;3.75;;;1.27;;
58685;SDS011;44465;53.206;-6.106;2023-07-16T13:38:13;5.30;;;1.38;;
58685;SDS011;44465;53.206;-6.106;2023-07-16T13:40:39;5.80;;;1.17;;
58685;SDS011;44465;53.206;-6.106;2023-07-16T13:43:04;5.80;;;1.55;;
58685;SDS011;44465;53.206;-6.106;2023-07-16T13:45:30;2.83;;;1.25;;
58685;SDS011;44465;53.206;-6.106;2023-07-16T13:47:58;3.95;;;0.93;;
58685;SDS011;44465;53.206;-6.106;2023-07-16T13:50:23;3.83;;;1.10;;
58685;SDS011;44465;53.206;-6.106;2023-07-16T13:52:49;2.95;;;1.10;;
58685;SDS011;44465;53.206;-6.106;2023-07-16T13:55:14;4.20;;;1.15;;
58685;SDS011;44465;53.206;-6.106;2023-07-16T13:57:40;8.40;;;1.45;;
58685;SDS011;44465;53.206;-6.106;2023-07-16T14:00:06;5.90;;;1.67;;
58685;SDS011;44465;53.206;-6.106;2023-07-16T14:02:35;4.35;;;1.35;;
58685;SDS011;44465;53.206;-6.106;2023-07-16T14:05:01;4.35;;;1.20;;
58685;SDS011;44465;53.206;-6.106;2023-07-16T14:07:26;1.77;;;0.88;;
58685;SDS011;44465;53.206;-6.106;2023-07-16T14:09:51;4.68;;;1.33;;
58685;SDS011;44465;53.206;-6.106;2023-07-16T14:12:17;2.83;;;0.82;;
58685;SDS011;44465;53.206;-6.106;2023-07-16T14:14:42;0.90;;;0.90;;
58685;SDS011;44465;53.206;-6.106;2023-07-16T14:17:08;3.28;;;1.13;;
58685;SDS011;44465;53.206;-6.106;2023-07-16T14:19:34;1.80;;;1.00;;
58685;SDS011;44465;53.206;-6.106;2023-07-16T14:22:00;1.60;;;0.95;;
58685;SDS011;44465;53.206;-6.106;2023-07-16T14:24:26;2.63;;;0.90;;
58685;SDS011;44465;53.206;-6.106;2023-07-16T14:26:51;3.50;;;1.35;;
58685;SDS011;44465;53.206;-6.106;2023-07-16T14:29:17;2.55;;;1.27;;
58685;SDS011;44465;53.206;-6.106;2023-07-16T14:31:42;3.88;;;0.98;;
58685;SDS011;44465;53.206;-6.106;2023-07-16T14:34:09;3.33;;;1.00;;
58685;SDS011;44465;53.206;-6.106;2023-07-16T14:36:35;0.95;;;0.70;;
58685;SDS011;44465;53.206;-6.106;2023-07-16T14:39:00;2.35;;;1.10;;
58685;SDS011;44465;53.206;-6.106;2023-07-16T14:41:26;1.42;;;1.00;;